createdAt,value
2017-03-30T00:00:26.683Z,1021.01
2017-03-30T00:01:07.570Z,1020.96
2017-03-30T00:01:48.461Z,1020.94
2017-03-30T00:02:29.369Z,1020.93
2017-03-30T00:03:10.250Z,1020.92
2017-03-30T00:03:51.136Z,1020.89
2017-03-30T00:04:32.030Z,1020.89
2017-03-30T00:05:12.911Z,1020.95
2017-03-30T00:05:53.787Z,1020.92
2017-03-30T00:06:34.671Z,1020.93
2017-03-30T00:07:15.575Z,1020.94
2017-03-30T00:07:56.435Z,1020.97
2017-03-30T00:08:37.320Z,1021.03
2017-03-30T00:09:18.215Z,1021.01
2017-03-30T00:09:59.103Z,1021.02
2017-03-30T00:10:39.995Z,1021
2017-03-30T00:11:20.857Z,1021.01
2017-03-30T00:12:01.750Z,1021
2017-03-30T00:12:42.637Z,1020.96
2017-03-30T00:13:23.524Z,1021.02
2017-03-30T00:14:04.380Z,1021
2017-03-30T00:14:45.310Z,1021
2017-03-30T00:15:26.175Z,1021.03
2017-03-30T00:16:07.055Z,1020.99
2017-03-30T00:16:47.952Z,1021.02
2017-03-30T00:17:28.821Z,1020.99
2017-03-30T00:18:09.704Z,1020.99
2017-03-30T00:18:50.578Z,1020.96
2017-03-30T00:19:31.447Z,1021
2017-03-30T00:20:12.317Z,1021.01
2017-03-30T00:20:53.204Z,1021
2017-03-30T00:21:34.096Z,1020.96
2017-03-30T00:22:14.979Z,1020.99
2017-03-30T00:22:55.849Z,1021
2017-03-30T00:23:36.745Z,1020.99
2017-03-30T00:24:17.640Z,1020.97
2017-03-30T00:24:58.527Z,1021
2017-03-30T00:25:39.412Z,1021
2017-03-30T00:26:20.293Z,1021.03
2017-03-30T00:27:01.179Z,1021.03
2017-03-30T00:27:42.065Z,1021.04
2017-03-30T00:28:22.945Z,1021.02
2017-03-30T00:29:03.831Z,1021.04
2017-03-30T00:29:44.714Z,1021
2017-03-30T00:30:25.596Z,1021
2017-03-30T00:31:06.489Z,1021.01
2017-03-30T00:31:47.381Z,1021.01
2017-03-30T00:32:28.267Z,1021.03
2017-03-30T00:33:09.168Z,1021.02
2017-03-30T00:33:50.115Z,1020.98
2017-03-30T00:34:31.003Z,1020.97
2017-03-30T00:35:11.891Z,1021.03
2017-03-30T00:35:52.774Z,1020.95
2017-03-30T00:36:33.661Z,1020.99
2017-03-30T00:37:14.547Z,1021.02
2017-03-30T00:37:55.434Z,1021.01
2017-03-30T00:38:36.317Z,1021
2017-03-30T00:39:17.205Z,1021
2017-03-30T00:39:58.091Z,1021.03
2017-03-30T00:40:38.964Z,1021
2017-03-30T00:41:19.858Z,1020.98
2017-03-30T00:42:00.742Z,1020.97
2017-03-30T00:42:41.633Z,1020.99
2017-03-30T00:43:22.501Z,1020.96
2017-03-30T00:44:03.384Z,1021
2017-03-30T00:44:44.268Z,1020.96
2017-03-30T00:45:25.163Z,1020.95
2017-03-30T00:46:06.037Z,1020.93
2017-03-30T00:46:46.917Z,1020.96
2017-03-30T00:47:27.808Z,1020.96
2017-03-30T00:48:08.698Z,1020.97
2017-03-30T00:48:49.578Z,1020.97
2017-03-30T00:49:30.455Z,1020.98
2017-03-30T00:50:11.344Z,1021
2017-03-30T00:50:52.247Z,1020.97
2017-03-30T00:51:33.119Z,1020.99
2017-03-30T00:52:14.015Z,1020.98
2017-03-30T00:52:54.909Z,1021
2017-03-30T00:53:35.778Z,1020.95
2017-03-30T00:54:16.703Z,1020.95
2017-03-30T00:54:57.597Z,1020.92
2017-03-30T00:55:38.461Z,1020.94
2017-03-30T00:56:19.328Z,1020.92
2017-03-30T00:57:00.244Z,1020.96
2017-03-30T00:57:41.119Z,1020.91
2017-03-30T00:58:21.989Z,1020.96
2017-03-30T00:59:02.870Z,1020.98
2017-03-30T00:59:43.760Z,1020.96
2017-03-30T01:00:24.681Z,1020.97
2017-03-30T01:01:05.609Z,1020.96
2017-03-30T01:01:46.472Z,1020.96
2017-03-30T01:02:27.366Z,1020.94
2017-03-30T01:03:08.255Z,1020.95
2017-03-30T01:03:49.130Z,1020.95
2017-03-30T01:04:30.009Z,1020.97
2017-03-30T01:05:10.883Z,1020.95
2017-03-30T01:05:51.762Z,1020.98
2017-03-30T01:06:32.651Z,1020.97
2017-03-30T01:07:13.539Z,1020.95
2017-03-30T01:07:54.397Z,1020.96
2017-03-30T01:08:35.289Z,1020.96
2017-03-30T01:09:16.178Z,1021
2017-03-30T01:09:57.061Z,1021.02
2017-03-30T01:10:37.933Z,1020.98
2017-03-30T01:11:18.792Z,1020.98
2017-03-30T01:11:59.669Z,1021.02
2017-03-30T01:12:40.539Z,1021.01
2017-03-30T01:13:21.443Z,1021
2017-03-30T01:14:02.329Z,1021.01
2017-03-30T01:14:43.186Z,1021.01
2017-03-30T01:15:24.074Z,1020.98
2017-03-30T01:16:04.966Z,1021.02
2017-03-30T01:16:45.861Z,1021.04
2017-03-30T01:17:26.716Z,1020.99
2017-03-30T01:18:07.600Z,1021.02
2017-03-30T01:18:48.486Z,1020.99
2017-03-30T01:19:29.391Z,1021
2017-03-30T01:20:10.250Z,1020.96
2017-03-30T01:20:51.105Z,1021
2017-03-30T01:21:31.993Z,1020.99
2017-03-30T01:22:12.882Z,1020.98
2017-03-30T01:22:53.773Z,1021.02
2017-03-30T01:23:34.669Z,1021.02
2017-03-30T01:24:15.560Z,1021
2017-03-30T01:24:56.457Z,1021
2017-03-30T01:25:37.337Z,1020.99
2017-03-30T01:26:18.215Z,1020.98
2017-03-30T01:26:59.096Z,1020.98
2017-03-30T01:27:39.975Z,1020.96
2017-03-30T01:28:20.850Z,1020.98
2017-03-30T01:29:01.736Z,1020.97
2017-03-30T01:29:42.627Z,1020.96
2017-03-30T01:30:23.517Z,1020.98
2017-03-30T01:31:04.388Z,1020.98
2017-03-30T01:31:45.270Z,1020.98
2017-03-30T01:32:26.152Z,1021.02
2017-03-30T01:33:07.034Z,1021.04
2017-03-30T01:33:47.917Z,1020.98
2017-03-30T01:34:28.803Z,1021.03
2017-03-30T01:35:09.694Z,1021.01
2017-03-30T01:35:50.586Z,1021.02
2017-03-30T01:36:31.465Z,1021.02
2017-03-30T01:37:12.348Z,1021.03
2017-03-30T01:37:53.245Z,1021.03
2017-03-30T01:38:34.133Z,1021.03
2017-03-30T01:39:15.009Z,1021.06
2017-03-30T01:39:55.906Z,1021
2017-03-30T01:40:36.794Z,1021.02
2017-03-30T01:41:17.662Z,1021.01
2017-03-30T01:41:58.545Z,1021.01
2017-03-30T01:42:39.441Z,1021
2017-03-30T01:43:20.327Z,1020.99
2017-03-30T01:44:01.205Z,1020.96
2017-03-30T01:44:42.084Z,1020.93
2017-03-30T01:45:22.968Z,1020.92
2017-03-30T01:46:03.862Z,1020.92
2017-03-30T01:46:44.743Z,1020.9
2017-03-30T01:47:25.637Z,1020.9
2017-03-30T01:48:06.519Z,1020.9
2017-03-30T01:48:47.401Z,1020.91
2017-03-30T01:49:28.290Z,1020.94
2017-03-30T01:50:09.169Z,1020.91
2017-03-30T01:50:50.056Z,1020.89
2017-03-30T01:51:30.946Z,1020.93
2017-03-30T01:52:11.818Z,1020.91
2017-03-30T01:52:52.697Z,1020.95
2017-03-30T01:53:33.633Z,1020.98
2017-03-30T01:54:14.469Z,1020.94
2017-03-30T01:54:55.353Z,1020.94
2017-03-30T01:55:36.250Z,1020.93
2017-03-30T01:56:17.135Z,1020.96
2017-03-30T01:56:58.024Z,1020.97
2017-03-30T01:57:38.897Z,1020.98
2017-03-30T01:58:19.771Z,1020.98
2017-03-30T01:59:00.653Z,1020.95
2017-03-30T01:59:41.533Z,1020.91
2017-03-30T02:00:22.411Z,1020.93
2017-03-30T02:01:03.284Z,1020.92
2017-03-30T02:01:44.166Z,1020.91
2017-03-30T02:02:25.046Z,1020.93
2017-03-30T02:03:05.930Z,1020.92
2017-03-30T02:03:46.812Z,1020.91
2017-03-30T02:04:27.701Z,1020.93
2017-03-30T02:05:08.580Z,1020.94
2017-03-30T02:05:49.460Z,1020.91
2017-03-30T02:06:30.344Z,1020.9
2017-03-30T02:07:11.222Z,1020.92
2017-03-30T02:07:52.211Z,1020.95
2017-03-30T02:08:33.121Z,1020.96
2017-03-30T02:09:13.998Z,1020.97
2017-03-30T02:09:54.885Z,1020.95
2017-03-30T02:10:36.535Z,1021.01
2017-03-30T02:11:17.422Z,1021.02
2017-03-30T02:11:58.303Z,1021.04
2017-03-30T02:12:39.195Z,1021.03
2017-03-30T02:13:20.144Z,1021.07
2017-03-30T02:14:01.023Z,1021.05
2017-03-30T02:14:42.647Z,1021.06
2017-03-30T02:15:23.579Z,1021.08
2017-03-30T02:16:04.464Z,1021.1
2017-03-30T02:16:45.348Z,1021.07
2017-03-30T02:17:26.222Z,1021.11
2017-03-30T02:18:07.106Z,1021.1
2017-03-30T02:18:48.003Z,1021.12
2017-03-30T02:19:28.876Z,1021.12
2017-03-30T02:20:09.753Z,1021.13
2017-03-30T02:20:50.640Z,1021.16
2017-03-30T02:21:31.539Z,1021.14
2017-03-30T02:22:12.405Z,1021.15
2017-03-30T02:22:53.330Z,1021.15
2017-03-30T02:23:34.244Z,1021.17
2017-03-30T02:24:15.104Z,1021.15
2017-03-30T02:24:55.992Z,1021.15
2017-03-30T02:25:36.874Z,1021.15
2017-03-30T02:26:17.757Z,1021.15
2017-03-30T02:26:58.637Z,1021.14
2017-03-30T02:27:39.532Z,1021.2
2017-03-30T02:28:20.420Z,1021.15
2017-03-30T02:29:01.294Z,1021.16
2017-03-30T02:29:42.177Z,1021.21
2017-03-30T02:30:23.064Z,1021.17
2017-03-30T02:31:03.960Z,1021.18
2017-03-30T02:31:44.851Z,1021.18
2017-03-30T02:32:25.740Z,1021.18
2017-03-30T02:33:06.615Z,1021.12
2017-03-30T02:33:47.491Z,1021.11
2017-03-30T02:34:28.364Z,1021.1
2017-03-30T02:35:09.248Z,1021.16
2017-03-30T02:35:50.132Z,1021.14
2017-03-30T02:36:31.017Z,1021.14
2017-03-30T02:37:11.892Z,1021.11
2017-03-30T02:37:52.845Z,1021.12
2017-03-30T02:38:33.728Z,1021.13
2017-03-30T02:39:14.618Z,1021.16
2017-03-30T02:39:55.499Z,1021.18
2017-03-30T02:40:36.382Z,1021.21
2017-03-30T02:41:17.264Z,1021.2
2017-03-30T02:41:58.152Z,1021.27
2017-03-30T02:42:39.042Z,1021.2
2017-03-30T02:43:19.919Z,1021.28
2017-03-30T02:44:00.800Z,1021.26
2017-03-30T02:44:41.692Z,1021.26
2017-03-30T02:45:22.574Z,1021.24
2017-03-30T02:46:03.444Z,1021.26
2017-03-30T02:46:44.330Z,1021.3
2017-03-30T02:47:25.219Z,1021.26
2017-03-30T02:48:06.113Z,1021.28
2017-03-30T02:48:47.014Z,1021.26
2017-03-30T02:49:27.897Z,1021.24
2017-03-30T02:50:08.783Z,1021.26
2017-03-30T02:50:49.657Z,1021.26
2017-03-30T02:51:30.541Z,1021.24
2017-03-30T02:52:11.426Z,1021.21
2017-03-30T02:52:52.301Z,1021.27
2017-03-30T02:53:33.181Z,1021.22
2017-03-30T02:54:14.071Z,1021.3
2017-03-30T02:54:54.960Z,1021.24
2017-03-30T02:55:35.856Z,1021.25
2017-03-30T02:56:16.736Z,1021.26
2017-03-30T02:56:57.637Z,1021.24
2017-03-30T02:57:38.534Z,1021.29
2017-03-30T02:58:19.399Z,1021.27
2017-03-30T02:59:00.277Z,1021.27
2017-03-30T02:59:41.161Z,1021.24
2017-03-30T03:00:22.048Z,1021.27
2017-03-30T03:01:02.933Z,1021.23
2017-03-30T03:01:43.818Z,1021.23
2017-03-30T03:02:24.705Z,1021.26
2017-03-30T03:03:05.591Z,1021.21
2017-03-30T03:03:46.459Z,1021.23
2017-03-30T03:04:27.342Z,1021.27
2017-03-30T03:05:08.240Z,1021.24
2017-03-30T03:05:49.132Z,1021.26
2017-03-30T03:06:30.004Z,1021.27
2017-03-30T03:07:10.891Z,1021.28
2017-03-30T03:07:51.774Z,1021.32
2017-03-30T03:08:32.662Z,1021.33
2017-03-30T03:09:13.543Z,1021.32
2017-03-30T03:09:54.423Z,1021.3
2017-03-30T03:10:35.312Z,1021.3
2017-03-30T03:11:16.186Z,1021.29
2017-03-30T03:11:57.078Z,1021.27
2017-03-30T03:12:37.962Z,1021.3
2017-03-30T03:13:18.850Z,1021.28
2017-03-30T03:13:59.725Z,1021.3
2017-03-30T03:14:40.667Z,1021.27
2017-03-30T03:15:21.545Z,1021.28
2017-03-30T03:16:02.428Z,1021.25
2017-03-30T03:16:43.316Z,1021.24
2017-03-30T03:17:24.198Z,1021.26
2017-03-30T03:18:05.077Z,1021.22
2017-03-30T03:18:45.961Z,1021.25
2017-03-30T03:19:26.837Z,1021.23
2017-03-30T03:20:07.732Z,1021.24
2017-03-30T03:20:48.614Z,1021.2
2017-03-30T03:21:29.502Z,1021.22
2017-03-30T03:22:10.391Z,1021.2
2017-03-30T03:22:51.274Z,1021.21
2017-03-30T03:23:32.163Z,1021.24
2017-03-30T03:24:13.044Z,1021.22
2017-03-30T03:24:53.932Z,1021.22
2017-03-30T03:25:34.826Z,1021.21
2017-03-30T03:26:15.689Z,1021.21
2017-03-30T03:26:56.576Z,1021.2
2017-03-30T03:27:37.467Z,1021.2
2017-03-30T03:28:18.345Z,1021.2
2017-03-30T03:28:59.231Z,1021.18
2017-03-30T03:29:40.111Z,1021.22
2017-03-30T03:30:21.029Z,1021.19
2017-03-30T03:31:01.946Z,1021.22
2017-03-30T03:31:42.794Z,1021.17
2017-03-30T03:32:23.677Z,1021.18
2017-03-30T03:33:04.561Z,1021.17
2017-03-30T03:33:45.445Z,1021.17
2017-03-30T03:34:26.334Z,1021.12
2017-03-30T03:35:07.220Z,1021.14
2017-03-30T03:35:48.131Z,1021.16
2017-03-30T03:36:29.015Z,1021.13
2017-03-30T03:37:09.917Z,1021.14
2017-03-30T03:39:04.508Z,1021.18
2017-03-30T03:39:45.390Z,1021.18
2017-03-30T03:40:26.305Z,1021.22
2017-03-30T03:41:07.197Z,1021.18
2017-03-30T03:41:48.095Z,1021.22
2017-03-30T03:42:28.965Z,1021.22
2017-03-30T03:43:09.851Z,1021.22
2017-03-30T03:43:50.734Z,1021.19
2017-03-30T03:44:31.626Z,1021.21
2017-03-30T03:45:12.506Z,1021.2
2017-03-30T03:45:53.383Z,1021.2
2017-03-30T03:46:34.264Z,1021.21
2017-03-30T03:47:15.138Z,1021.23
2017-03-30T03:47:56.029Z,1021.22
2017-03-30T03:48:36.923Z,1021.22
2017-03-30T03:49:17.811Z,1021.22
2017-03-30T03:49:58.708Z,1021.28
2017-03-30T03:50:39.579Z,1021.27
2017-03-30T03:51:20.463Z,1021.27
2017-03-30T03:52:01.371Z,1021.24
2017-03-30T03:52:42.251Z,1021.25
2017-03-30T03:53:23.127Z,1021.22
2017-03-30T03:54:04.004Z,1021.16
2017-03-30T03:54:44.889Z,1021.21
2017-03-30T03:55:25.764Z,1021.2
2017-03-30T03:56:06.641Z,1021.21
2017-03-30T03:56:47.515Z,1021.23
2017-03-30T03:57:28.396Z,1021.21
2017-03-30T03:58:09.281Z,1021.23
2017-03-30T03:58:50.164Z,1021.24
2017-03-30T03:59:31.050Z,1021.24
2017-03-30T04:00:11.945Z,1021.24
2017-03-30T04:00:52.836Z,1021.27
2017-03-30T04:01:33.724Z,1021.28
2017-03-30T04:02:14.581Z,1021.31
2017-03-30T04:02:55.463Z,1021.31
2017-03-30T04:03:36.370Z,1021.29
2017-03-30T04:04:17.260Z,1021.28
2017-03-30T04:04:58.133Z,1021.35
2017-03-30T04:05:39.032Z,1021.36
2017-03-30T04:06:19.924Z,1021.38
2017-03-30T04:07:00.799Z,1021.41
2017-03-30T04:07:41.675Z,1021.37
2017-03-30T04:08:22.545Z,1021.4
2017-03-30T04:09:03.431Z,1021.37
2017-03-30T04:09:44.318Z,1021.41
2017-03-30T04:10:25.197Z,1021.4
2017-03-30T04:11:06.082Z,1021.41
2017-03-30T04:11:46.970Z,1021.4
2017-03-30T04:12:27.892Z,1021.44
2017-03-30T04:13:08.806Z,1021.41
2017-03-30T04:13:49.740Z,1021.43
2017-03-30T04:15:22.999Z,1021.47
2017-03-30T04:16:03.891Z,1021.49
2017-03-30T04:16:44.783Z,1021.4
2017-03-30T04:17:25.650Z,1021.45
2017-03-30T04:18:06.530Z,1021.43
2017-03-30T04:18:47.424Z,1021.47
2017-03-30T04:19:28.307Z,1021.46
2017-03-30T04:20:09.204Z,1021.48
2017-03-30T04:20:50.117Z,1021.48
2017-03-30T04:22:28.504Z,1021.48
2017-03-30T04:23:09.383Z,1021.46
2017-03-30T04:23:50.258Z,1021.46
2017-03-30T04:25:43.932Z,1021.46
2017-03-30T04:26:24.815Z,1021.48
2017-03-30T04:27:05.775Z,1021.5
2017-03-30T04:27:46.660Z,1021.54
2017-03-30T04:28:27.543Z,1021.53
2017-03-30T04:29:08.421Z,1021.52
2017-03-30T04:29:49.309Z,1021.52
2017-03-30T04:30:30.193Z,1021.49
2017-03-30T04:31:11.089Z,1021.5
2017-03-30T04:31:51.958Z,1021.47
2017-03-30T04:32:32.854Z,1021.51
2017-03-30T04:33:13.738Z,1021.56
2017-03-30T04:33:54.612Z,1021.5
2017-03-30T04:34:35.481Z,1021.54
2017-03-30T04:35:16.349Z,1021.53
2017-03-30T04:35:57.220Z,1021.54
2017-03-30T04:36:38.111Z,1021.52
2017-03-30T04:37:18.994Z,1021.54
2017-03-30T04:37:59.866Z,1021.53
2017-03-30T04:38:40.745Z,1021.53
2017-03-30T04:39:21.601Z,1021.53
2017-03-30T04:40:02.484Z,1021.51
2017-03-30T04:40:43.380Z,1021.53
2017-03-30T04:41:24.254Z,1021.53
2017-03-30T04:42:05.131Z,1021.54
2017-03-30T04:42:46.011Z,1021.56
2017-03-30T04:43:26.899Z,1021.54
2017-03-30T04:44:07.778Z,1021.52
2017-03-30T04:44:48.656Z,1021.57
2017-03-30T04:45:29.536Z,1021.54
2017-03-30T04:46:10.416Z,1021.53
2017-03-30T04:46:51.301Z,1021.56
2017-03-30T04:47:32.184Z,1021.55
2017-03-30T04:48:13.056Z,1021.57
2017-03-30T04:48:53.937Z,1021.53
2017-03-30T04:49:34.816Z,1021.51
2017-03-30T04:50:15.700Z,1021.51
2017-03-30T04:50:56.575Z,1021.52
2017-03-30T04:51:37.454Z,1021.52
2017-03-30T04:52:18.331Z,1021.54
2017-03-30T04:52:59.220Z,1021.53
2017-03-30T04:53:40.093Z,1021.53
2017-03-30T04:54:20.973Z,1021.53
2017-03-30T04:55:01.868Z,1021.55
2017-03-30T04:55:42.754Z,1021.53
2017-03-30T04:56:23.645Z,1021.56
2017-03-30T04:57:04.518Z,1021.53
2017-03-30T04:57:45.387Z,1021.54
2017-03-30T04:58:26.272Z,1021.59
2017-03-30T04:59:07.164Z,1021.57
2017-03-30T04:59:48.042Z,1021.54
2017-03-30T05:00:28.932Z,1021.59
2017-03-30T05:01:09.807Z,1021.58
2017-03-30T05:01:50.696Z,1021.55
2017-03-30T05:02:31.573Z,1021.64
2017-03-30T05:03:12.450Z,1021.6
2017-03-30T05:03:53.327Z,1021.6
2017-03-30T05:04:34.216Z,1021.57
2017-03-30T05:05:15.101Z,1021.54
2017-03-30T05:05:56.010Z,1021.59
2017-03-30T05:06:36.882Z,1021.57
2017-03-30T05:07:17.770Z,1021.54
2017-03-30T05:07:58.652Z,1021.58
2017-03-30T05:08:39.536Z,1021.56
2017-03-30T05:09:20.421Z,1021.58
2017-03-30T05:10:01.311Z,1021.6
2017-03-30T05:10:42.198Z,1021.59
2017-03-30T05:11:23.079Z,1021.59
2017-03-30T05:12:03.959Z,1021.59
2017-03-30T05:12:44.839Z,1021.6
2017-03-30T05:13:25.715Z,1021.6
2017-03-30T05:14:06.597Z,1021.6
2017-03-30T05:14:47.557Z,1021.61
2017-03-30T05:15:28.443Z,1021.59
2017-03-30T05:16:09.318Z,1021.6
2017-03-30T05:16:50.195Z,1021.58
2017-03-30T05:17:31.080Z,1021.57
2017-03-30T05:18:11.949Z,1021.63
2017-03-30T05:18:52.828Z,1021.61
2017-03-30T05:19:33.716Z,1021.64
2017-03-30T05:20:14.586Z,1021.61
2017-03-30T05:20:55.471Z,1021.64
2017-03-30T05:21:36.339Z,1021.63
2017-03-30T05:22:17.225Z,1021.61
2017-03-30T05:22:58.116Z,1021.61
2017-03-30T05:23:39.005Z,1021.61
2017-03-30T05:24:19.876Z,1021.6
2017-03-30T05:25:00.793Z,1021.62
2017-03-30T05:25:41.655Z,1021.65
2017-03-30T05:26:22.540Z,1021.65
2017-03-30T05:27:03.442Z,1021.63
2017-03-30T05:27:44.298Z,1021.66
2017-03-30T05:28:25.186Z,1021.66
2017-03-30T05:29:06.068Z,1021.67
2017-03-30T05:29:46.950Z,1021.65
2017-03-30T05:30:27.842Z,1021.66
2017-03-30T05:31:08.738Z,1021.68
2017-03-30T05:31:49.671Z,1021.69
2017-03-30T05:32:30.505Z,1021.63
2017-03-30T05:33:11.373Z,1021.66
2017-03-30T05:33:52.252Z,1021.68
2017-03-30T05:34:33.133Z,1021.71
2017-03-30T05:35:14.016Z,1021.72
2017-03-30T05:35:54.893Z,1021.71
2017-03-30T05:36:35.783Z,1021.73
2017-03-30T05:37:16.658Z,1021.74
2017-03-30T05:37:57.546Z,1021.75
2017-03-30T05:38:38.430Z,1021.71
2017-03-30T05:39:19.321Z,1021.73
2017-03-30T05:40:00.198Z,1021.74
2017-03-30T05:40:41.086Z,1021.76
2017-03-30T05:41:21.993Z,1021.75
2017-03-30T05:42:02.866Z,1021.74
2017-03-30T05:42:43.749Z,1021.77
2017-03-30T05:43:24.634Z,1021.78
2017-03-30T05:44:05.526Z,1021.75
2017-03-30T05:44:46.399Z,1021.78
2017-03-30T05:45:27.307Z,1021.75
2017-03-30T05:46:08.184Z,1021.75
2017-03-30T05:46:49.069Z,1021.74
2017-03-30T05:47:29.933Z,1021.76
2017-03-30T05:48:10.805Z,1021.77
2017-03-30T05:48:51.683Z,1021.77
2017-03-30T05:49:32.544Z,1021.78
2017-03-30T05:50:13.417Z,1021.73
2017-03-30T05:50:54.298Z,1021.73
2017-03-30T05:51:35.180Z,1021.72
2017-03-30T05:52:16.061Z,1021.78
2017-03-30T05:52:56.933Z,1021.72
2017-03-30T05:53:37.842Z,1021.74
2017-03-30T05:54:18.722Z,1021.76
2017-03-30T05:54:59.602Z,1021.73
2017-03-30T05:55:40.488Z,1021.72
2017-03-30T05:56:21.376Z,1021.76
2017-03-30T05:57:02.254Z,1021.71
2017-03-30T05:57:43.163Z,1021.76
2017-03-30T05:58:24.050Z,1021.72
2017-03-30T05:59:05.032Z,1021.78
2017-03-30T05:59:45.926Z,1021.75
2017-03-30T06:00:26.810Z,1021.78
2017-03-30T06:01:07.697Z,1021.77
2017-03-30T06:01:48.582Z,1021.78
2017-03-30T06:02:29.471Z,1021.76
2017-03-30T06:03:10.365Z,1021.76
2017-03-30T06:03:51.246Z,1021.76
2017-03-30T06:04:32.167Z,1021.8
2017-03-30T06:05:13.018Z,1021.8
2017-03-30T06:05:53.927Z,1021.83
2017-03-30T06:06:34.826Z,1021.81
2017-03-30T06:07:15.715Z,1021.83
2017-03-30T06:07:56.585Z,1021.79
2017-03-30T06:08:37.469Z,1021.81
2017-03-30T06:09:18.362Z,1021.84
2017-03-30T06:09:59.247Z,1021.8
2017-03-30T06:10:40.124Z,1021.79
2017-03-30T06:11:21.003Z,1021.81
2017-03-30T06:12:01.897Z,1021.82
2017-03-30T06:12:42.807Z,1021.81
2017-03-30T06:13:23.661Z,1021.8
2017-03-30T06:14:04.534Z,1021.81
2017-03-30T06:14:45.424Z,1021.86
2017-03-30T06:15:26.293Z,1021.81
2017-03-30T06:16:07.183Z,1021.82
2017-03-30T06:16:48.080Z,1021.83
2017-03-30T06:17:28.964Z,1021.85
2017-03-30T06:18:09.845Z,1021.87
2017-03-30T06:18:50.711Z,1021.85
2017-03-30T06:19:31.590Z,1021.83
2017-03-30T06:20:12.467Z,1021.82
2017-03-30T06:20:53.360Z,1021.84
2017-03-30T06:21:34.242Z,1021.88
2017-03-30T06:22:15.131Z,1021.85
2017-03-30T06:22:56.022Z,1021.83
2017-03-30T06:23:36.899Z,1021.84
2017-03-30T06:24:17.792Z,1021.81
2017-03-30T06:24:58.679Z,1021.82
2017-03-30T06:25:39.554Z,1021.85
2017-03-30T06:26:20.424Z,1021.81
2017-03-30T06:27:01.303Z,1021.84
2017-03-30T06:29:00.132Z,1021.79
2017-03-30T06:29:41.027Z,1021.8
2017-03-30T06:30:21.906Z,1021.82
2017-03-30T06:31:02.797Z,1021.83
2017-03-30T06:31:43.655Z,1021.81
2017-03-30T06:32:24.543Z,1021.81
2017-03-30T06:33:05.428Z,1021.8
2017-03-30T06:33:46.313Z,1021.79
2017-03-30T06:34:27.183Z,1021.79
2017-03-30T06:35:08.063Z,1021.81
2017-03-30T06:35:48.947Z,1021.83
2017-03-30T06:36:29.813Z,1021.81
2017-03-30T06:37:10.687Z,1021.79
2017-03-30T06:37:51.580Z,1021.84
2017-03-30T06:38:32.492Z,1021.8
2017-03-30T06:39:13.373Z,1021.82
2017-03-30T06:39:54.253Z,1021.81
2017-03-30T06:40:35.149Z,1021.85
2017-03-30T06:41:16.038Z,1021.83
2017-03-30T06:41:56.910Z,1021.84
2017-03-30T06:42:37.789Z,1021.84
2017-03-30T06:43:18.680Z,1021.84
2017-03-30T06:43:59.565Z,1021.84
2017-03-30T06:44:40.478Z,1021.83
2017-03-30T06:45:21.355Z,1021.85
2017-03-30T06:46:02.238Z,1021.82
2017-03-30T06:46:43.117Z,1021.82
2017-03-30T06:47:24.001Z,1021.84
2017-03-30T06:48:04.889Z,1021.83
2017-03-30T06:48:45.762Z,1021.84
2017-03-30T06:49:26.640Z,1021.83
2017-03-30T06:50:07.512Z,1021.82
2017-03-30T06:50:48.391Z,1021.84
2017-03-30T06:51:29.270Z,1021.82
2017-03-30T06:52:10.154Z,1021.86
2017-03-30T06:52:51.033Z,1021.87
2017-03-30T06:53:31.897Z,1021.88
2017-03-30T06:54:12.780Z,1021.85
2017-03-30T06:54:53.667Z,1021.87
2017-03-30T06:55:34.574Z,1021.85
2017-03-30T06:56:15.433Z,1021.9
2017-03-30T06:56:56.317Z,1021.91
2017-03-30T06:57:37.205Z,1021.94
2017-03-30T06:58:18.078Z,1021.91
2017-03-30T06:58:58.956Z,1021.91
2017-03-30T06:59:39.840Z,1021.94
2017-03-30T07:00:20.718Z,1021.94
2017-03-30T07:01:01.604Z,1021.92
2017-03-30T07:02:56.227Z,1021.9
2017-03-30T07:03:37.115Z,1021.93
2017-03-30T07:04:18.001Z,1021.93
2017-03-30T07:04:58.885Z,1021.94
2017-03-30T07:05:39.758Z,1021.97
2017-03-30T07:06:20.655Z,1021.96
2017-03-30T07:07:01.536Z,1021.95
2017-03-30T07:07:42.412Z,1021.95
2017-03-30T07:08:23.301Z,1021.96
2017-03-30T07:09:04.185Z,1021.94
2017-03-30T07:09:45.075Z,1021.96
2017-03-30T07:10:25.974Z,1021.97
2017-03-30T07:11:06.922Z,1021.97
2017-03-30T07:11:47.803Z,1021.95
2017-03-30T07:12:28.690Z,1021.94
2017-03-30T07:13:09.569Z,1021.98
2017-03-30T07:13:50.452Z,1021.97
2017-03-30T07:14:31.321Z,1021.97
2017-03-30T07:15:12.209Z,1022.02
2017-03-30T07:15:53.099Z,1022.03
2017-03-30T07:16:33.999Z,1022.03
2017-03-30T07:17:14.873Z,1022.05
2017-03-30T07:17:55.767Z,1022.04
2017-03-30T07:18:36.652Z,1022.03
2017-03-30T07:19:17.532Z,1022.09
2017-03-30T07:19:58.415Z,1022.03
2017-03-30T07:20:39.304Z,1022.05
2017-03-30T07:21:20.240Z,1022.09
2017-03-30T07:22:01.127Z,1022.06
2017-03-30T07:22:42.002Z,1022.09
2017-03-30T07:23:22.911Z,1022.1
2017-03-30T07:24:03.797Z,1022.1
2017-03-30T07:24:44.717Z,1022.1
2017-03-30T07:25:25.609Z,1022.12
2017-03-30T07:26:06.482Z,1022.11
2017-03-30T07:26:47.359Z,1022.1
2017-03-30T07:27:28.229Z,1022.05
2017-03-30T07:28:09.121Z,1022.06
2017-03-30T07:28:50.008Z,1022.04
2017-03-30T07:29:30.895Z,1022.05
2017-03-30T07:30:11.806Z,1022.03
2017-03-30T07:30:52.670Z,1022
2017-03-30T07:31:33.553Z,1022.04
2017-03-30T07:32:14.437Z,1022.04
2017-03-30T07:32:55.319Z,1022.03
2017-03-30T07:33:36.212Z,1022.02
2017-03-30T07:34:17.087Z,1022.06
2017-03-30T07:34:57.969Z,1022.06
2017-03-30T07:35:38.844Z,1022.08
2017-03-30T07:36:19.723Z,1022.07
2017-03-30T07:37:00.608Z,1022.06
2017-03-30T07:37:41.497Z,1022.1
2017-03-30T07:39:51.480Z,1022.11
2017-03-30T07:40:32.367Z,1022.09
2017-03-30T07:41:13.241Z,1022.12
2017-03-30T07:41:54.128Z,1022.11
2017-03-30T07:42:35.011Z,1022.1
2017-03-30T07:43:15.900Z,1022.09
2017-03-30T07:43:56.781Z,1022.12
2017-03-30T07:44:37.644Z,1022.12
2017-03-30T07:45:18.525Z,1022.14
2017-03-30T07:45:59.453Z,1022.17
2017-03-30T07:46:40.329Z,1022.14
2017-03-30T07:47:21.199Z,1022.14
2017-03-30T07:48:02.088Z,1022.12
2017-03-30T07:48:42.995Z,1022.18
2017-03-30T07:49:23.868Z,1022.14
2017-03-30T07:50:04.758Z,1022.15
2017-03-30T07:50:45.643Z,1022.14
2017-03-30T07:51:26.526Z,1022.12
2017-03-30T07:52:07.407Z,1022.16
2017-03-30T07:52:48.280Z,1022.15
2017-03-30T07:53:29.158Z,1022.15
2017-03-30T07:54:10.038Z,1022.17
2017-03-30T07:54:50.934Z,1022.18
2017-03-30T07:56:29.343Z,1022.18
2017-03-30T07:57:10.228Z,1022.21
2017-03-30T07:57:51.112Z,1022.19
2017-03-30T07:58:31.991Z,1022.17
2017-03-30T07:59:12.868Z,1022.18
2017-03-30T07:59:53.735Z,1022.21
2017-03-30T08:00:34.617Z,1022.2
2017-03-30T08:01:15.507Z,1022.2
2017-03-30T08:01:56.378Z,1022.22
2017-03-30T08:02:37.263Z,1022.21
2017-03-30T08:03:18.144Z,1022.23
2017-03-30T08:03:59.035Z,1022.26
2017-03-30T08:04:39.968Z,1022.22
2017-03-30T08:05:20.810Z,1022.24
2017-03-30T08:06:01.693Z,1022.25
2017-03-30T08:06:42.579Z,1022.3
2017-03-30T08:07:23.472Z,1022.27
2017-03-30T08:08:04.358Z,1022.27
2017-03-30T08:08:45.246Z,1022.29
2017-03-30T08:09:26.133Z,1022.31
2017-03-30T08:10:07.014Z,1022.28
2017-03-30T08:10:47.895Z,1022.32
2017-03-30T08:11:28.777Z,1022.34
2017-03-30T08:12:09.654Z,1022.3
2017-03-30T08:12:50.537Z,1022.3
2017-03-30T08:13:31.420Z,1022.29
2017-03-30T08:14:12.306Z,1022.31
2017-03-30T08:14:53.192Z,1022.31
2017-03-30T08:15:34.078Z,1022.28
2017-03-30T08:16:14.957Z,1022.29
2017-03-30T08:16:55.846Z,1022.29
2017-03-30T08:17:36.734Z,1022.3
2017-03-30T08:18:17.624Z,1022.3
2017-03-30T08:18:58.515Z,1022.3
2017-03-30T08:19:39.437Z,1022.31
2017-03-30T08:20:20.287Z,1022.34
2017-03-30T08:21:01.174Z,1022.35
2017-03-30T08:21:42.059Z,1022.33
2017-03-30T08:22:22.948Z,1022.31
2017-03-30T08:23:03.823Z,1022.33
2017-03-30T08:23:44.725Z,1022.34
2017-03-30T08:24:25.617Z,1022.35
2017-03-30T08:25:06.498Z,1022.33
2017-03-30T08:25:47.369Z,1022.37
2017-03-30T08:26:28.242Z,1022.34
2017-03-30T08:27:09.128Z,1022.38